Time;durP1;ratioP1;P1;durP2;ratioP2;P2;SDS_P1;SDS_P2;PMS_P1;PMS_P2;Temp;Humidity;BMP_temperature;BMP_pressure;BME280_temperature;BME280_humidity;BME280_pressure;Samples;Min_cycle;Max_cycle;Signal;HPM_P1;HPM_P2
2021/08/16 00:00:59;;;;;;;3.85;3.10;;;18.10;92.40;;;;;;4970648;28;20034;-84
2021/08/16 00:03:24;;;;;;;4.93;3.58;;;18.10;92.70;;;;;;4972436;28;20045;-84
2021/08/16 00:05:50;;;;;;;5.15;3.50;;;18.10;92.60;;;;;;4987927;28;20058;-84
2021/08/16 00:08:15;;;;;;;5.95;3.55;;;18.20;92.80;;;;;;4987280;28;20038;-84
2021/08/16 06:01:15;;;;;;;4.32;2.80;;;19.20;90.70;;;;;;4544195;28;20170;-85
2021/08/16 06:03:44;;;;;;;3.60;2.80;;;19.30;90.60;;;;;;4985466;28;20486;-85
2021/08/16 06:06:09;;;;;;;3.67;3.30;;;19.30;90.50;;;;;;4931102;28;20109;-85
2021/08/16 06:08:35;;;;;;;5.93;2.92;;;19.30;90.70;;;;;;4987680;28;20113;-85
2021/08/16 06:11:03;;;;;;;4.15;2.85;;;19.30;90.70;;;;;;4986351;28;20092;-84
2021/08/16 06:13:29;;;;;;;4.00;2.70;;;19.30;90.70;;;;;;4983417;28;20034;-84
2021/08/16 06:15:54;;;;;;;4.68;3.10;;;19.40;90.90;;;;;;4967612;28;20412;-83
2021/08/16 06:18:20;;;;;;;5.47;2.92;;;19.50;90.90;;;;;;4965723;28;20088;-84
2021/08/16 06:20:45;;;;;;;4.22;2.63;;;19.50;91.00;;;;;;4967863;28;20030;-83
2021/08/16 06:23:11;;;;;;;4.03;3.15;;;19.60;90.70;;;;;;4969837;28;20025;-84
2021/08/16 06:25:36;;;;;;;4.60;3.15;;;19.60;90.80;;;;;;4985105;28;20141;-84
2021/08/16 06:28:02;;;;;;;4.28;2.85;;;19.60;90.50;;;;;;4973428;28;20031;-85
2021/08/16 06:30:28;;;;;;;4.07;3.00;;;19.70;90.60;;;;;;4981613;28;20037;-83
2021/08/16 06:32:53;;;;;;;3.10;2.70;;;19.70;90.50;;;;;;4982473;28;20034;-84
2021/08/16 06:35:19;;;;;;;5.78;4.63;;;19.80;90.40;;;;;;4981349;28;20030;-83
2021/08/16 06:37:46;;;;;;;5.18;2.78;;;19.90;90.60;;;;;;4987401;28;21659;-83
2021/08/16 06:40:13;;;;;;;6.53;3.65;;;20.00;90.60;;;;;;4970777;28;20117;-85
2021/08/16 06:42:39;;;;;;;3.80;2.88;;;20.00;90.10;;;;;;4971774;28;20077;-83
2021/08/16 06:45:06;;;;;;;6.88;3.25;;;20.10;90.30;;;;;;4986071;28;20073;-84
2021/08/16 06:47:33;;;;;;;4.93;3.47;;;20.20;90.10;;;;;;4987128;28;20080;-84
2021/08/16 06:49:59;;;;;;;5.40;3.35;;;20.20;90.10;;;;;;4986545;28;20027;-84
2021/08/16 06:52:25;;;;;;;7.47;4.15;;;20.20;90.40;;;;;;4971288;28;20033;-85
2021/08/16 06:54:50;;;;;;;7.78;3.40;;;20.20;90.10;;;;;;4988346;28;20365;-83
2021/08/16 06:57:16;;;;;;;6.55;3.25;;;20.20;90.20;;;;;;4968770;28;20042;-83
2021/08/16 06:59:42;;;;;;;8.02;3.80;;;20.30;90.20;;;;;;4983283;28;20018;-84
2021/08/16 07:02:08;;;;;;;5.38;3.20;;;20.30;90.40;;;;;;4969722;28;20255;-84
2021/08/16 07:04:41;;;;;;;6.47;4.07;;;20.40;90.30;;;;;;4988049;28;20030;-83
2021/08/16 07:07:06;;;;;;;4.93;3.58;;;20.50;90.40;;;;;;4970548;28;20499;-83
2021/08/16 07:09:32;;;;;;;6.35;4.20;;;20.60;89.40;;;;;;4971537;28;20054;-83
2021/08/16 07:11:57;;;;;;;5.53;4.03;;;20.80;90.20;;;;;;4971609;28;20026;-83
2021/08/16 07:14:23;;;;;;;7.47;3.80;;;20.90;90.00;;;;;;5000382;28;20387;-83
2021/08/16 07:16:49;;;;;;;6.22;3.70;;;20.90;88.70;;;;;;4985675;28;20115;-84
2021/08/16 07:19:14;;;;;;;5.15;4.00;;;20.90;88.70;;;;;;4968156;28;20525;-84
2021/08/16 07:21:40;;;;;;;5.28;4.00;;;20.90;89.20;;;;;;4968638;28;20037;-84
2021/08/16 07:24:06;;;;;;;5.25;3.80;;;21.00;89.30;;;;;;4972656;28;20026;-83
2021/08/16 07:26:31;;;;;;;8.35;4.75;;;21.00;88.80;;;;;;4985062;28;20389;-83
2021/08/16 07:28:57;;;;;;;6.63;3.97;;;21.10;89.40;;;;;;4983382;28;20030;-84
2021/08/16 07:31:23;;;;;;;7.38;4.20;;;21.10;88.10;;;;;;4986363;28;20458;-83
2021/08/16 07:33:49;;;;;;;5.47;3.63;;;21.10;88.60;;;;;;4984653;28;20434;-84
2021/08/16 07:36:15;;;;;;;6.53;3.72;;;21.10;88.20;;;;;;4967066;28;20030;-83
2021/08/16 07:38:41;;;;;;;8.57;4.15;;;21.20;88.70;;;;;;4985410;28;20031;-83
2021/08/16 07:41:06;;;;;;;6.85;4.28;;;21.10;89.10;;;;;;4985694;28;20026;-84
2021/08/16 07:43:32;;;;;;;8.50;4.20;;;21.10;88.30;;;;;;4984685;28;20130;-84
2021/08/16 07:45:58;;;;;;;8.38;4.70;;;21.00;87.70;;;;;;4985963;28;20041;-83
2021/08/16 07:48:23;;;;;;;6.43;4.65;;;20.90;87.90;;;;;;4969359;28;20026;-83
2021/08/16 07:50:49;;;;;;;8.50;4.82;;;21.00;88.10;;;;;;4971184;28;20212;-83
2021/08/16 07:53:15;;;;;;;7.38;4.65;;;20.90;88.10;;;;;;4987763;28;20050;-84
2021/08/16 07:55:41;;;;;;;9.98;4.40;;;20.80;88.20;;;;;;4984668;28;20038;-84
2021/08/16 07:58:06;;;;;;;7.35;4.53;;;20.80;88.50;;;;;;4984739;28;20106;-84
2021/08/16 08:00:32;;;;;;;4.95;3.83;;;20.80;88.50;;;;;;4981493;28;20042;-84
2021/08/16 08:02:58;;;;;;;5.85;4.63;;;20.80;88.40;;;;;;4968022;28;20500;-84
2021/08/16 08:05:24;;;;;;;6.70;4.75;;;20.70;89.50;;;;;;4983242;28;20030;-84
2021/08/16 08:07:50;;;;;;;9.18;5.20;;;20.70;90.10;;;;;;5000726;28;20034;-85
2021/08/16 08:10:17;;;;;;;7.43;5.00;;;20.60;90.80;;;;;;4968076;28;20038;-85
2021/08/16 08:12:44;;;;;;;6.30;4.43;;;20.60;91.20;;;;;;5001247;28;20034;-85
2021/08/16 08:15:11;;;;;;;10.38;5.38;;;20.50;91.10;;;;;;4983730;28;20069;-85
2021/08/16 08:17:37;;;;;;;8.50;4.95;;;20.50;90.60;;;;;;4999850;28;20491;-84
2021/08/16 08:20:05;;;;;;;8.27;5.13;;;20.50;90.50;;;;;;4986949;28;20045;-84
2021/08/16 08:22:31;;;;;;;8.65;5.32;;;20.40;87.80;;;;;;4984277;28;20030;-83
2021/08/16 08:24:57;;;;;;;7.22;5.18;;;20.30;88.40;;;;;;4981243;28;20494;-84
2021/08/16 08:27:23;;;;;;;9.88;5.60;;;20.30;88.60;;;;;;4968050;28;20037;-84
2021/08/16 08:29:49;;;;;;;7.75;5.45;;;20.30;89.40;;;;;;4969634;28;20422;-84
2021/08/16 08:32:16;;;;;;;11.70;5.88;;;20.30;90.00;;;;;;4984516;28;20601;-84
2021/08/16 08:34:42;;;;;;;9.68;5.75;;;20.30;88.80;;;;;;4969980;28;20112;-84
2021/08/16 08:37:11;;;;;;;8.18;5.88;;;20.30;89.80;;;;;;4984928;28;20122;-83
2021/08/16 08:39:37;;;;;;;9.50;6.63;;;20.40;88.60;;;;;;4985522;28;20030;-84
2021/08/16 08:42:05;;;;;;;10.80;6.13;;;20.40;88.90;;;;;;4967766;28;21996;-84
2021/08/16 08:44:31;;;;;;;;;;;20.50;88.60;;;;;;4986261;28;20129;-84
2021/08/16 08:46:57;;;;;;;7.50;6.00;;;20.50;88.90;;;;;;4964588;28;20129;-84
2021/08/16 08:49:22;;;;;;;9.02;5.97;;;20.70;88.60;;;;;;4984108;28;20034;-82
2021/08/16 08:51:49;;;;;;;10.15;6.32;;;20.80;87.60;;;;;;4998309;28;20069;-83
2021/08/16 08:54:16;;;;;;;8.93;5.88;;;20.80;86.80;;;;;;4971590;28;20027;-82
2021/08/16 08:56:42;;;;;;;11.82;6.95;;;20.90;87.40;;;;;;4971152;28;20035;-83
2021/08/16 08:59:10;;;;;;;8.85;6.65;;;21.00;86.30;;;;;;4984913;28;20018;-83
2021/08/16 09:01:36;;;;;;;11.60;6.50;;;21.00;84.80;;;;;;4967520;28;20046;-84
2021/08/16 09:04:01;;;;;;;10.05;6.15;;;20.90;83.00;;;;;;4985074;28;20018;-84
2021/08/16 09:06:38;;;;;;;12.95;6.03;;;20.80;83.60;;;;;;4966733;28;20394;-82
2021/08/16 09:09:04;;;;;;;8.07;6.03;;;20.90;84.50;;;;;;4968637;28;20038;-82
2021/08/16 09:11:30;;;;;;;12.27;6.40;;;20.90;84.70;;;;;;4985707;28;20435;-84
2021/08/16 09:14:05;;;;;;;7.55;6.28;;;20.80;84.10;;;;;;4966609;28;20033;-84
2021/08/16 09:16:33;;;;;;;9.88;5.63;;;20.80;81.40;;;;;;4985344;28;20037;-81
2021/08/16 09:19:10;;;;;;;7.20;5.65;;;20.70;82.30;;;;;;4968574;28;20057;-83
2021/08/16 09:21:38;;;;;;;10.43;6.13;;;20.80;83.80;;;;;;4962800;28;20038;-84
2021/08/16 09:24:05;;;;;;;11.98;6.28;;;20.80;83.30;;;;;;4969194;28;20437;-83
2021/08/16 09:26:35;;;;;;;8.00;5.60;;;20.90;82.10;;;;;;4966146;28;20034;-84
2021/08/16 09:29:14;;;;;;;9.52;6.38;;;20.90;83.50;;;;;;4968571;28;20113;-86
2021/08/16 09:32:09;;;;;;;8.02;5.78;;;20.70;82.50;;;;;;4967507;28;20081;-86
2021/08/16 09:34:37;;;;;;;9.30;5.60;;;20.70;81.70;;;;;;4965870;28;20106;-83
2021/08/16 09:37:27;;;;;;;8.70;6.00;;;20.70;82.90;;;;;;4978723;28;20497;-83
2021/08/16 09:40:06;;;;;;;8.02;5.97;;;20.70;81.80;;;;;;4982305;28;20031;-83
2021/08/16 09:42:46;;;;;;;9.63;5.60;;;20.60;80.60;;;;;;4983007;28;20044;-84
2021/08/16 09:45:32;;;;;;;6.00;5.05;;;20.60;82.30;;;;;;4965013;28;20034;-82
2021/08/16 09:47:59;;;;;;;11.32;5.80;;;20.50;82.50;;;;;;4995808;28;20030;-82
2021/08/16 09:50:37;;;;;;;6.57;5.10;;;20.50;82.30;;;;;;4963259;28;20046;-83
2021/08/16 09:53:07;;;;;;;;;;;20.50;81.70;;;;;;4995829;28;20041;-83
2021/08/16 09:55:37;;;;;;;8.82;4.82;;;20.50;82.20;;;;;;4962340;28;19922;-83
2021/08/16 09:58:06;;;;;;;5.97;4.60;;;20.40;81.60;;;;;;4964580;28;20054;-83
2021/08/16 10:00:32;;;;;;;8.85;4.53;;;20.50;82.20;;;;;;4967368;28;24982;-83
2021/08/16 10:03:00;;;;;;;6.78;5.15;;;20.40;81.90;;;;;;4967489;28;20113;-83
2021/08/16 10:05:27;;;;;;;6.57;4.10;;;20.50;81.90;;;;;;4959522;28;20088;-83
2021/08/16 10:07:54;;;;;;;8.55;5.07;;;20.50;81.70;;;;;;4982465;28;20042;-84
2021/08/16 10:10:20;;;;;;;7.32;4.43;;;20.60;80.80;;;;;;4964652;28;20045;-83
2021/08/16 10:12:47;;;;;;;8.52;4.43;;;20.70;81.10;;;;;;4974139;28;20499;-85
2021/08/16 10:15:13;;;;;;;7.18;3.95;;;20.80;78.10;;;;;;4989411;28;20041;-82
2021/08/16 10:17:43;;;;;;;5.68;3.95;;;21.00;75.00;;;;;;4993310;28;20022;-83
2021/08/16 10:20:10;;;;;;;6.40;3.88;;;21.10;76.10;;;;;;5006454;28;20490;-83
2021/08/16 10:22:41;;;;;;;7.28;3.88;;;21.20;74.70;;;;;;4991840;28;20045;-84
2021/08/16 10:25:17;;;;;;;6.05;3.72;;;21.20;73.00;;;;;;4993247;28;20438;-82
2021/08/16 10:27:44;;;;;;;5.47;3.80;;;21.30;74.60;;;;;;4991997;28;20080;-87
2021/08/16 10:30:15;;;;;;;6.65;3.90;;;21.30;74.90;;;;;;4975483;28;20034;-83
2021/08/16 10:32:41;;;;;;;5.95;3.70;;;21.40;75.10;;;;;;4973589;28;20088;-84
2021/08/16 10:35:17;;;;;;;5.10;3.40;;;21.50;75.80;;;;;;4993905;28;20035;-86
2021/08/16 10:37:45;;;;;;;7.25;3.65;;;21.50;73.90;;;;;;5004074;28;20034;-85
2021/08/16 10:40:23;;;;;;;8.65;3.80;;;21.40;74.50;;;;;;4977310;28;20034;-85
2021/08/16 10:42:53;;;;;;;5.28;3.40;;;21.40;73.80;;;;;;4989631;28;20179;-85
2021/08/16 10:45:31;;;;;;;6.80;4.13;;;21.30;71.80;;;;;;4993058;28;20022;-84
2021/08/16 10:48:05;;;;;;;5.13;3.15;;;21.20;71.40;;;;;;4991329;28;20030;-85
2021/08/16 10:50:32;;;;;;;5.55;4.03;;;21.10;71.80;;;;;;4990685;28;20029;-84
2021/08/16 10:53:04;;;;;;;5.82;3.88;;;21.10;71.80;;;;;;4975244;28;20030;-84
2021/08/16 10:55:33;;;;;;;7.35;4.20;;;21.00;70.50;;;;;;5006531;28;20034;-85
2021/08/16 10:57:58;;;;;;;3.75;3.15;;;20.90;73.00;;;;;;4973112;28;20076;-85
2021/08/16 11:00:24;;;;;;;6.47;3.58;;;21.00;73.40;;;;;;4950258;28;1221573;-85
2021/08/16 11:02:56;;;;;;;6.18;3.50;;;20.90;72.50;;;;;;4979939;28;20026;-85
2021/08/16 11:05:29;;;;;;;4.65;2.97;;;20.80;72.90;;;;;;4993261;28;20026;-85
2021/08/16 11:07:57;;;;;;;7.32;3.20;;;20.80;72.10;;;;;;5006761;28;20038;-85
2021/08/16 11:10:23;;;;;;;5.70;3.80;;;20.70;72.30;;;;;;4993705;28;20033;-84
2021/08/16 11:12:49;;;;;;;5.78;3.13;;;20.70;72.00;;;;;;4993900;28;20034;-83
2021/08/16 11:15:18;;;;;;;4.13;3.13;;;20.60;72.60;;;;;;4975607;28;20026;-84
2021/08/16 11:17:43;;;;;;;6.38;3.15;;;20.60;72.60;;;;;;4975631;28;20643;-83
2021/08/16 11:20:15;;;;;;;5.15;3.55;;;20.60;72.80;;;;;;4994085;28;20030;-84
2021/08/16 11:22:45;;;;;;;5.45;3.40;;;20.60;71.90;;;;;;4975867;28;20469;-83
2021/08/16 11:25:13;;;;;;;6.03;3.15;;;20.60;72.40;;;;;;4992285;28;20065;-84
2021/08/16 11:27:42;;;;;;;4.40;2.95;;;20.50;72.30;;;;;;4994402;28;20018;-83
2021/08/16 11:30:10;;;;;;;4.75;3.28;;;20.50;72.10;;;;;;4986704;28;20114;-83
2021/08/16 11:32:37;;;;;;;;;;;20.50;72.00;;;;;;4973626;28;20037;-83
2021/08/16 11:35:04;;;;;;;6.35;3.17;;;20.40;72.90;;;;;;4992769;28;19971;-84
2021/08/16 11:37:33;;;;;;;7.03;3.38;;;20.50;73.40;;;;;;4990569;28;20029;-84
2021/08/16 11:40:00;;;;;;;5.28;3.10;;;20.40;71.90;;;;;;4991767;28;20026;-82
2021/08/16 11:42:26;;;;;;;4.85;3.35;;;20.50;73.60;;;;;;4976344;28;20057;-84
2021/08/16 11:44:57;;;;;;;6.70;3.85;;;20.40;72.80;;;;;;4992548;28;20478;-84
2021/08/16 11:47:31;;;;;;;4.35;3.20;;;20.40;73.90;;;;;;5005511;28;20038;-84
2021/08/16 11:49:59;;;;;;;4.50;3.22;;;20.50;74.50;;;;;;4975263;28;20040;-84
2021/08/16 11:52:25;;;;;;;7.20;3.67;;;20.50;75.10;;;;;;5006716;28;20096;-85
2021/08/16 11:54:51;;;;;;;6.43;3.33;;;20.60;74.90;;;;;;4975227;28;20038;-84
2021/08/16 11:57:22;;;;;;;6.45;3.30;;;20.60;73.70;;;;;;4988792;28;20060;-84
2021/08/16 11:59:55;;;;;;;5.40;3.08;;;20.50;73.30;;;;;;4990650;28;20056;-84
2021/08/16 12:02:24;;;;;;;6.47;3.50;;;20.50;73.80;;;;;;4973384;28;20446;-84
2021/08/16 12:04:52;;;;;;;4.50;3.03;;;20.50;75.30;;;;;;4974606;28;20037;-84
2021/08/16 12:07:21;;;;;;;;;;;20.50;75.80;;;;;;4987792;28;20459;-84
2021/08/16 12:09:47;;;;;;;4.88;3.47;;;20.60;76.00;;;;;;4972370;28;20381;-84
2021/08/16 12:12:18;;;;;;;6.32;3.35;;;20.60;74.90;;;;;;4988608;28;20034;-84
2021/08/16 12:14:44;;;;;;;5.35;3.38;;;20.50;75.10;;;;;;4990577;28;20076;-84
2021/08/16 12:17:09;;;;;;;6.75;3.10;;;20.50;75.90;;;;;;4974622;28;20034;-84
2021/08/16 12:19:36;;;;;;;7.18;3.42;;;20.30;76.00;;;;;;4990299;28;20085;-84
2021/08/16 12:22:10;;;;;;;9.85;4.03;;;20.30;75.80;;;;;;4992661;28;20026;-84
2021/08/16 12:24:38;;;;;;;4.60;3.00;;;20.30;76.50;;;;;;4972611;28;20971;-84
2021/08/16 12:27:05;;;;;;;;;;;20.20;76.30;;;;;;4993038;28;20054;-84
2021/08/16 12:29:39;;;;;;;7.00;4.07;;;20.20;76.30;;;;;;4993440;28;19926;-84
2021/08/16 12:32:20;;;;;;;5.15;3.22;;;20.10;77.00;;;;;;4972759;28;20045;-84
2021/08/16 12:34:47;;;;;;;6.10;3.50;;;20.10;77.40;;;;;;4991091;28;20030;-84
2021/08/16 12:37:31;;;;;;;4.85;3.20;;;20.00;78.20;;;;;;4990635;28;20494;-84
2021/08/16 12:40:08;;;;;;;7.65;3.78;;;19.90;79.90;;;;;;4991614;28;20422;-85
2021/08/16 12:42:35;;;;;;;3.90;3.30;;;19.90;81.10;;;;;;4989445;28;20029;-86
2021/08/16 12:45:01;;;;;;;5.15;3.25;;;19.80;82.10;;;;;;4990100;28;20285;-85
2021/08/16 12:47:32;;;;;;;5.95;3.92;;;19.70;82.50;;;;;;4991602;28;20298;-85
2021/08/16 12:50:02;;;;;;;6.50;3.83;;;19.70;84.00;;;;;;4991867;28;20030;-85
2021/08/16 12:52:29;;;;;;;5.65;3.83;;;19.70;86.10;;;;;;4990330;28;20038;-85
2021/08/16 12:54:56;;;;;;;5.57;3.83;;;19.70;86.10;;;;;;4987156;28;20557;-85
2021/08/16 12:57:21;;;;;;;4.25;3.50;;;19.70;86.20;;;;;;4985659;28;20038;-85
2021/08/16 12:59:47;;;;;;;5.13;3.45;;;19.70;85.30;;;;;;4973566;28;20053;-84
2021/08/16 13:02:21;;;;;;;5.88;3.80;;;19.70;84.70;;;;;;4974620;28;20069;-85
2021/08/16 13:04:47;;;;;;;9.10;4.20;;;19.70;84.70;;;;;;4988533;28;20047;-84
2021/08/16 13:07:12;;;;;;;6.65;4.13;;;19.70;84.30;;;;;;4972788;28;20478;-85
2021/08/16 13:09:38;;;;;;;7.93;4.32;;;19.70;84.90;;;;;;4987871;28;20029;-85
2021/08/16 13:12:04;;;;;;;7.13;4.15;;;19.60;86.10;;;;;;4968839;28;20113;-85
2021/08/16 13:14:30;;;;;;;7.82;4.22;;;19.50;86.60;;;;;;4986335;28;20050;-85
2021/08/16 13:16:55;;;;;;;8.15;4.82;;;19.40;87.80;;;;;;4972078;28;20025;-85
2021/08/16 13:19:21;;;;;;;7.93;4.80;;;19.30;89.40;;;;;;4989400;28;20394;-85
2021/08/16 13:21:47;;;;;;;11.18;4.85;;;19.20;89.60;;;;;;4969915;28;20037;-84
2021/08/16 13:24:13;;;;;;;7.65;4.38;;;19.20;88.10;;;;;;4982169;28;20037;-85
2021/08/16 13:26:39;;;;;;;9.48;4.10;;;19.30;86.80;;;;;;4993802;28;20057;-85
2021/08/16 13:29:04;;;;;;;8.02;4.28;;;19.30;87.60;;;;;;4988155;28;20049;-85
2021/08/16 13:31:30;;;;;;;7.03;4.47;;;19.30;88.70;;;;;;4985325;28;20501;-85
2021/08/16 13:33:58;;;;;;;8.25;4.30;;;19.40;87.40;;;;;;4988309;28;20030;-85
2021/08/16 13:36:25;;;;;;;6.07;3.60;;;19.30;87.20;;;;;;4963642;28;20477;-85
2021/08/16 13:38:50;;;;;;;6.97;4.05;;;19.30;87.10;;;;;;4987870;28;20403;-85
2021/08/16 13:41:19;;;;;;;5.00;3.75;;;19.30;86.60;;;;;;4991031;28;20030;-85
2021/08/16 13:43:44;;;;;;;7.07;4.13;;;19.40;86.60;;;;;;4968316;28;20034;-85
2021/08/16 13:46:10;;;;;;;6.75;3.40;;;19.40;85.30;;;;;;4974299;28;20022;-85
2021/08/16 13:48:36;;;;;;;8.57;3.70;;;19.40;85.00;;;;;;4969998;28;20030;-85
2021/08/16 13:51:02;;;;;;;4.82;3.40;;;19.40;85.00;;;;;;4986516;28;20174;-85
2021/08/16 13:53:31;;;;;;;7.15;3.95;;;19.50;85.20;;;;;;4969893;28;20041;-85
2021/08/16 13:55:57;;;;;;;10.68;4.30;;;19.40;84.70;;;;;;4986608;28;20027;-84
2021/08/16 13:58:23;;;;;;;7.70;3.88;;;19.40;86.00;;;;;;4986809;28;20027;-85
2021/08/16 14:00:48;;;;;;;7.80;3.83;;;19.50;83.80;;;;;;4971392;28;20053;-85
2021/08/16 14:03:14;;;;;;;7.53;3.65;;;19.50;84.20;;;;;;4970978;28;20030;-84
2021/08/16 14:05:40;;;;;;;5.97;3.97;;;19.50;84.00;;;;;;4972261;28;20026;-84
2021/08/16 14:08:06;;;;;;;6.07;3.70;;;19.50;82.20;;;;;;4985764;28;20117;-85
2021/08/16 14:10:31;;;;;;;8.57;4.22;;;19.40;83.50;;;;;;4985936;28;20048;-84
2021/08/16 14:12:57;;;;;;;6.55;3.63;;;19.40;85.30;;;;;;4969607;28;20053;-84
2021/08/16 14:15:23;;;;;;;9.88;4.25;;;19.50;84.60;;;;;;4985354;28;20031;-84
2021/08/16 14:17:49;;;;;;;7.00;3.97;;;19.50;85.40;;;;;;4968140;28;20077;-84
2021/08/16 14:20:14;;;;;;;7.57;3.78;;;19.50;85.30;;;;;;4971103;28;20030;-85
2021/08/16 14:22:40;;;;;;;7.38;3.75;;;19.50;85.00;;;;;;4984707;28;21818;-84
2021/08/16 14:25:07;;;;;;;6.20;4.20;;;19.50;85.80;;;;;;4990185;28;20129;-84
2021/08/16 14:27:34;;;;;;;7.05;3.53;;;19.60;84.90;;;;;;4985231;28;20140;-85
2021/08/16 14:30:00;;;;;;;6.32;3.22;;;19.60;85.60;;;;;;4970474;28;20553;-85
2021/08/16 14:32:25;;;;;;;5.43;3.45;;;19.60;85.80;;;;;;4983307;28;20034;-85
2021/08/16 14:34:51;;;;;;;8.32;3.83;;;19.60;83.50;;;;;;4970721;28;20394;-85
2021/08/16 14:37:17;;;;;;;7.47;3.78;;;19.60;83.50;;;;;;4967961;28;20034;-84
2021/08/16 14:39:42;;;;;;;5.93;3.17;;;19.50;84.50;;;;;;4969340;28;20027;-85
2021/08/16 14:42:08;;;;;;;5.68;3.33;;;19.50;83.50;;;;;;4985768;28;20049;-85
2021/08/16 14:44:34;;;;;;;8.30;4.22;;;19.40;84.10;;;;;;4985629;28;20062;-84
2021/08/16 14:47:00;;;;;;;8.52;4.32;;;19.30;84.80;;;;;;4984865;28;20116;-84
2021/08/16 14:49:26;;;;;;;8.27;4.57;;;19.30;84.10;;;;;;4986512;28;20038;-84
2021/08/16 14:51:52;;;;;;;8.63;4.35;;;19.20;84.20;;;;;;4985376;28;20121;-84
2021/08/16 14:54:18;;;;;;;6.60;4.15;;;19.20;85.20;;;;;;4972585;28;20152;-84
2021/08/16 14:56:43;;;;;;;6.07;4.65;;;19.20;85.90;;;;;;4986548;28;20027;-84
2021/08/16 14:59:09;;;;;;;10.68;4.93;;;19.30;87.20;;;;;;4990423;28;20109;-84
2021/08/16 15:01:35;;;;;;;8.80;4.88;;;19.20;87.40;;;;;;4990293;28;20129;-84
2021/08/16 15:04:01;;;;;;;6.45;4.43;;;19.20;86.80;;;;;;4988859;28;20034;-84
2021/08/16 15:06:26;;;;;;;11.18;4.45;;;19.20;88.20;;;;;;4987638;28;20045;-84
2021/08/16 15:08:52;;;;;;;8.32;4.70;;;19.20;88.00;;;;;;4974564;28;20037;-84
2021/08/16 15:11:17;;;;;;;7.00;4.40;;;19.20;88.10;;;;;;4970347;28;20022;-84
2021/08/16 15:13:43;;;;;;;9.13;4.70;;;19.10;88.50;;;;;;4974757;28;20030;-84
2021/08/16 15:16:10;;;;;;;10.15;4.57;;;19.10;88.10;;;;;;4968459;28;20399;-84
2021/08/16 15:18:36;;;;;;;6.45;4.07;;;19.10;88.20;;;;;;4992275;28;20173;-83
2021/08/16 15:21:03;;;;;;;6.75;4.28;;;19.00;88.80;;;;;;4970105;28;20125;-84
2021/08/16 15:23:29;;;;;;;8.67;4.63;;;19.00;88.20;;;;;;4989290;28;20475;-84
2021/08/16 15:25:55;;;;;;;7.40;4.35;;;19.00;88.40;;;;;;4971649;28;20030;-84
2021/08/16 15:28:23;;;;;;;9.43;4.40;;;19.00;88.80;;;;;;4988758;28;20109;-85
2021/08/16 15:30:49;;;;;;;8.50;5.13;;;19.00;88.50;;;;;;4977490;28;20038;-85
2021/08/16 15:33:15;;;;;;;8.27;5.00;;;19.00;89.00;;;;;;4973894;28;20088;-82
2021/08/16 15:35:41;;;;;;;7.72;5.25;;;18.90;89.80;;;;;;4985451;28;20475;-84
2021/08/16 15:38:07;;;;;;;8.75;5.20;;;19.00;90.10;;;;;;4974171;28;20027;-84
2021/08/16 15:40:36;;;;;;;7.95;4.78;;;18.90;90.00;;;;;;4992047;28;20060;-84
2021/08/16 15:43:03;;;;;;;12.10;5.47;;;18.90;90.20;;;;;;4967939;28;20034;-83
2021/08/16 15:45:28;;;;;;;10.00;5.20;;;18.90;90.40;;;;;;4987985;28;20105;-83
2021/08/16 15:47:57;;;;;;;9.45;6.03;;;18.90;90.70;;;;;;4969078;28;20500;-83
2021/08/16 15:50:24;;;;;;;10.15;5.88;;;18.90;90.80;;;;;;4988096;28;20403;-84
2021/08/16 15:52:49;;;;;;;10.57;5.90;;;19.00;91.10;;;;;;4974823;28;20030;-85
2021/08/16 15:55:15;;;;;;;9.70;6.03;;;18.90;90.90;;;;;;4989448;28;20409;-83
2021/08/16 15:57:41;;;;;;;8.55;5.43;;;18.90;91.10;;;;;;4970454;28;20575;-83
2021/08/16 16:00:08;;;;;;;8.93;6.22;;;18.90;90.80;;;;;;4990023;28;20572;-83
2021/08/16 16:02:33;;;;;;;9.57;5.65;;;18.90;90.50;;;;;;4991438;28;20042;-83
2021/08/16 16:04:59;;;;;;;7.43;5.53;;;18.90;90.40;;;;;;4975762;28;20099;-84
2021/08/16 16:07:25;;;;;;;7.70;5.00;;;18.90;90.50;;;;;;4967749;28;20527;-84
2021/08/16 16:09:50;;;;;;;8.15;5.13;;;18.90;90.50;;;;;;4986117;28;20038;-84
2021/08/16 16:12:16;;;;;;;8.43;4.93;;;18.90;90.50;;;;;;4990822;28;20160;-84
2021/08/16 16:14:42;;;;;;;6.47;4.72;;;18.90;90.30;;;;;;4989796;28;20030;-84
2021/08/16 16:17:07;;;;;;;6.60;4.90;;;18.80;90.40;;;;;;4988873;28;20027;-83
2021/08/16 16:19:34;;;;;;;6.85;4.47;;;18.90;90.30;;;;;;4992777;28;20033;-84
2021/08/16 16:22:01;;;;;;;6.70;4.65;;;18.80;90.30;;;;;;4989687;28;20084;-84
2021/08/16 16:24:27;;;;;;;7.80;5.18;;;18.80;90.50;;;;;;5001632;28;20022;-84
2021/08/16 16:26:53;;;;;;;7.72;5.32;;;18.80;90.60;;;;;;4976313;28;20076;-84
2021/08/16 16:29:18;;;;;;;6.70;4.50;;;18.80;90.50;;;;;;4990023;28;20083;-83
2021/08/16 16:31:44;;;;;;;6.03;4.95;;;18.80;90.60;;;;;;4985463;28;20038;-84
2021/08/16 16:34:10;;;;;;;6.15;5.50;;;18.70;90.70;;;;;;4965456;28;20027;-83
2021/08/16 16:36:35;;;;;;;8.40;5.00;;;18.80;90.50;;;;;;4967215;28;20026;-83
2021/08/16 16:39:02;;;;;;;5.93;5.00;;;18.80;90.60;;;;;;4974631;28;20034;-84
2021/08/16 16:41:28;;;;;;;6.95;5.13;;;18.70;90.50;;;;;;4962858;28;20022;-83
2021/08/16 16:43:53;;;;;;;7.82;5.13;;;18.70;90.50;;;;;;4968384;28;20027;-84
2021/08/16 16:46:19;;;;;;;7.55;5.43;;;18.70;90.60;;;;;;4984298;28;20034;-83
2021/08/16 16:48:45;;;;;;;6.90;5.15;;;18.70;90.60;;;;;;4984431;28;20029;-84
2021/08/16 16:51:18;;;;;;;6.50;5.05;;;18.70;90.70;;;;;;4967082;28;20034;-83
2021/08/16 16:53:44;;;;;;;9.38;4.97;;;18.70;90.70;;;;;;4999952;28;20037;-84
2021/08/16 16:56:10;;;;;;;7.00;5.40;;;18.60;90.70;;;;;;4968954;28;20046;-84
2021/08/16 16:58:38;;;;;;;7.18;5.18;;;18.70;90.70;;;;;;4983384;28;20018;-83
2021/08/16 17:01:03;;;;;;;8.93;5.07;;;18.70;90.90;;;;;;4966762;28;20042;-84
2021/08/16 17:03:29;;;;;;;6.20;4.47;;;18.70;90.80;;;;;;4984948;28;20033;-83
2021/08/16 17:05:55;;;;;;;9.05;5.38;;;18.70;90.40;;;;;;4983387;28;20030;-84
2021/08/16 17:08:20;;;;;;;10.27;4.97;;;18.50;90.60;;;;;;4985861;28;20058;-84
2021/08/16 17:10:46;;;;;;;9.93;5.43;;;18.50;90.70;;;;;;4983216;28;20129;-86
2021/08/16 17:16:27;;;;;;;5.95;3.78;;;18.00;90.70;;;;;;4961060;28;20045;-86
2021/08/16 17:18:54;;;;;;;7.93;3.95;;;18.10;90.90;;;;;;4946533;28;20463;-85
2021/08/16 17:21:19;;;;;;;6.10;4.10;;;18.00;91.20;;;;;;4944783;28;20038;-85
2021/08/16 17:23:48;;;;;;;6.90;4.45;;;17.90;91.00;;;;;;4960900;28;20523;-86
2021/08/16 17:26:17;;;;;;;7.75;4.65;;;17.90;91.60;;;;;;4944642;28;20400;-87
2021/08/16 17:28:43;;;;;;;5.47;4.32;;;17.90;91.10;;;;;;4947276;28;20464;-85
2021/08/16 17:31:10;;;;;;;5.63;4.30;;;17.80;91.70;;;;;;4963724;28;20041;-84
2021/08/16 17:33:35;;;;;;;4.88;3.70;;;17.80;91.80;;;;;;4963788;28;20073;-85
2021/08/16 17:36:03;;;;;;;4.70;3.75;;;17.70;91.70;;;;;;4959775;28;20126;-86
2021/08/16 17:38:29;;;;;;;8.43;3.90;;;17.70;91.40;;;;;;4961317;28;20039;-84
2021/08/16 17:40:54;;;;;;;5.07;3.63;;;17.70;91.40;;;;;;4961836;28;20041;-85
2021/08/16 17:43:20;;;;;;;6.10;4.07;;;17.60;91.40;;;;;;4959450;28;20037;-85
2021/08/16 17:45:46;;;;;;;5.90;3.95;;;17.60;91.20;;;;;;4958173;28;20053;-85
2021/08/16 17:48:11;;;;;;;5.88;4.10;;;17.60;91.50;;;;;;4974509;28;20038;-86
2021/08/16 17:50:37;;;;;;;6.95;3.95;;;17.50;91.80;;;;;;4982070;28;20037;-84
2021/08/16 17:53:03;;;;;;;6.40;4.28;;;17.60;91.80;;;;;;4970093;28;20384;-85
2021/08/16 17:55:31;;;;;;;9.00;4.53;;;17.60;92.00;;;;;;4970551;28;20034;-85
2021/08/16 17:57:57;;;;;;;6.13;4.63;;;17.60;92.20;;;;;;4978552;28;20481;-84
2021/08/16 18:00:23;;;;;;;6.28;4.43;;;17.60;92.20;;;;;;4981574;28;20051;-85
2021/08/16 18:02:48;;;;;;;9.45;4.75;;;17.60;92.50;;;;;;4965464;28;20031;-85
2021/08/16 18:05:14;;;;;;;15.77;5.40;;;17.60;92.10;;;;;;4978632;28;20034;-85
2021/08/16 18:11:01;;;;;;;6.95;3.83;;;17.50;91.80;;;;;;4983745;28;20195;-84
2021/08/16 18:13:28;;;;;;;7.72;4.03;;;17.50;92.00;;;;;;4966857;28;20483;-85
2021/08/16 18:15:54;;;;;;;6.30;4.18;;;17.50;92.00;;;;;;4988685;28;20084;-86
2021/08/16 18:18:20;;;;;;;6.03;3.83;;;17.40;91.80;;;;;;4965331;28;20434;-85
2021/08/16 18:20:46;;;;;;;6.22;3.92;;;17.30;91.80;;;;;;4968443;28;20033;-85
2021/08/16 18:23:13;;;;;;;5.90;4.20;;;17.30;92.10;;;;;;4985150;28;20029;-85
2021/08/16 18:25:40;;;;;;;7.68;3.83;;;17.30;91.70;;;;;;4968510;28;20427;-85
2021/08/16 18:28:06;;;;;;;7.57;4.25;;;17.20;91.80;;;;;;4971045;28;20049;-85
2021/08/16 18:30:34;;;;;;;6.15;3.90;;;17.20;91.90;;;;;;4985435;28;20106;-84
2021/08/16 18:33:00;;;;;;;10.70;4.55;;;17.20;91.90;;;;;;4990952;28;20026;-85
2021/08/16 18:35:26;;;;;;;8.48;4.18;;;17.20;91.80;;;;;;4994858;28;20053;-86
2021/08/16 18:37:53;;;;;;;7.97;4.03;;;17.20;91.80;;;;;;4976602;28;20376;-85
2021/08/16 18:40:18;;;;;;;9.15;3.72;;;17.10;91.80;;;;;;4991682;28;20045;-85
2021/08/16 18:42:44;;;;;;;6.30;3.60;;;17.10;91.90;;;;;;4976866;28;20483;-84
2021/08/16 18:45:10;;;;;;;6.30;3.50;;;17.10;91.60;;;;;;4991492;28;20534;-84